Detall de PIREP

Printer-friendly versionPDF version

[2014/11/15 06:50:00]
Flight IATA:CT0001
Pilot Number:041
Company ICAO:CAT
Aircraft Type:BE58/A
PAX:2
Departing Airport: LEGE
Destination Airport: LELC
Alternate Airport:LEGR
Online: VATSIM
Route:MAMUK H110 SEROX A34 ALT
Flight Level:FL110
No Slew and time accel
No pause
Crash detect
Detect pilot in Cockpit between each 30 and 45 minutes
06:50 Zero fuel Weight: 4592 Lbs, Fuel Weight: 850 Lbs
06:50 VATSIM:LEGE 150630Z 00000KT 9999 SCT085 09/09 Q1004
06:50 VATSIM:LELC 150600Z VRB02KT CAVOK 13/09 Q1011 NOSIG
06:51 VOICE CATALONIAN
06:55 Parking Brakes off
06:59 Take-off
06:59 Take off Weight: 5438 Lbs
06:59 Wind: 301º @ 002 Knots Heading: 013º
06:59 POS N41º 54´ 19´´ E002º 45´ 43´´
07:00 Gear Up: 106 Knots
07:00 Flaps:1 at 106 Knots
07:00 Flaps:0 at 113 Knots
07:10 TOC
07:10 Fuel Weight: 811 Lb
07:15 Wind:252º@022 Knots Heading: 259º Ground Speed: 172 Knots Altitude 10754 ft
07:30 Wind:257º@022 Knots Heading: 258º Ground Speed: 163 Knots Altitude 10879 ft
07:45 Wind:257º@020 Knots Heading: 239º Ground Speed: 160 Knots Altitude 10951 ft
08:00 Wind:257º@022 Knots Heading: 202º Ground Speed: 177 Knots Altitude 10908 ft
08:15 Wind:261º@035 Knots Heading: 206º Ground Speed: 169 Knots Altitude 10961 ft
08:30 Wind:261º@037 Knots Heading: 194º Ground Speed: 178 Knots Altitude 10944 ft
08:36 TOD
08:36 Fuel Weight: 560 Lb
08:45 Wind:264º@020 Knots Heading: 189º Ground Speed: 167 Knots Altitude 5013 ft
09:00 Wind:251º@006 Knots Heading: 222º Ground Speed: 167 Knots Altitude 3897 ft
09:01 Flaps:1 at 132 Knots
09:02 Gear Down: 123 Knots
09:02 Flaps:2 at 114 Knots
09:06 TouchDown:Rate -69 ft/min Speed: 79 Knots
09:07 Flaps:1 at 67 Knots
09:07 Flaps:0 at 65 Knots
09:07 VATSIM:LELC 150800Z 27008KT CAVOK 16/08 Q1013 NOSIG
09:07 Land
09:07 Wind:279º@006 Knots
09:07 Heading: 245º
09:07 Flight Duration: 02:07
09:07 Landing Weight: 5087 Lbs
09:07 POS N37º 46´ 32´´ W000º 48´ 40´´
09:09 Parking brakes on
09:09 Block to Block Duration: 02:14
09:09 Final Fuel: 493 Lbls
09:09 Spent Fuel: 357 Lbls
09:09 Flight Length: 349 NM
09:09 TOD Land Length: 81 NM

Exportar CSV

Powered by Drupal - Modified by Danger4k